sensor_id;sensor_type;location;lat;lon;timestamp;P1;durP1;ratioP1;P2;durP2;ratioP2
25653;SDS011;13511;48.622;9.230;2023-04-07T00:01:51;15.38;;;14.10;;
25653;SDS011;13511;48.622;9.230;2023-04-07T00:04:17;14.63;;;13.48;;
25653;SDS011;13511;48.622;9.230;2023-04-07T00:06:43;15.00;;;13.60;;
25653;SDS011;13511;48.622;9.230;2023-04-07T00:09:09;14.93;;;13.63;;
25653;SDS011;13511;48.622;9.230;2023-04-07T00:11:35;14.82;;;13.63;;
25653;SDS011;13511;48.622;9.230;2023-04-07T00:14:01;14.93;;;13.73;;
25653;SDS011;13511;48.622;9.230;2023-04-07T00:16:27;14.27;;;13.07;;
25653;SDS011;13511;48.622;9.230;2023-04-07T00:18:53;15.13;;;13.40;;
25653;SDS011;13511;48.622;9.230;2023-04-07T00:21:19;15.20;;;13.80;;
25653;SDS011;13511;48.622;9.230;2023-04-07T00:23:45;14.88;;;13.50;;
25653;SDS011;13511;48.622;9.230;2023-04-07T00:26:12;16.25;;;14.68;;
25653;SDS011;13511;48.622;9.230;2023-04-07T00:28:38;16.65;;;15.20;;
25653;SDS011;13511;48.622;9.230;2023-04-07T00:31:04;16.92;;;15.43;;
25653;SDS011;13511;48.622;9.230;2023-04-07T00:33:30;16.90;;;15.35;;
25653;SDS011;13511;48.622;9.230;2023-04-07T00:35:56;15.27;;;13.88;;
25653;SDS011;13511;48.622;9.230;2023-04-07T00:38:22;15.80;;;14.50;;
25653;SDS011;13511;48.622;9.230;2023-04-07T00:40:48;16.55;;;15.10;;
25653;SDS011;13511;48.622;9.230;2023-04-07T00:43:14;16.42;;;15.02;;
25653;SDS011;13511;48.622;9.230;2023-04-07T00:45:41;16.77;;;15.23;;
25653;SDS011;13511;48.622;9.230;2023-04-07T00:48:07;16.00;;;14.57;;
25653;SDS011;13511;48.622;9.230;2023-04-07T00:50:33;16.60;;;15.00;;
25653;SDS011;13511;48.622;9.230;2023-04-07T00:52:59;16.75;;;15.15;;
25653;SDS011;13511;48.622;9.230;2023-04-07T00:55:26;16.88;;;15.18;;
25653;SDS011;13511;48.622;9.230;2023-04-07T00:57:52;16.67;;;15.10;;
25653;SDS011;13511;48.622;9.230;2023-04-07T01:00:18;17.63;;;15.63;;
25653;SDS011;13511;48.622;9.230;2023-04-07T01:03:07;18.33;;;16.50;;
25653;SDS011;13511;48.622;9.230;2023-04-07T01:05:38;17.83;;;16.13;;
25653;SDS011;13511;48.622;9.230;2023-04-07T01:08:13;18.42;;;16.63;;
25653;SDS011;13511;48.622;9.230;2023-04-07T01:10:56;17.88;;;15.95;;
25653;SDS011;13511;48.622;9.230;2023-04-07T01:13:29;15.80;;;14.45;;
25653;SDS011;13511;48.622;9.230;2023-04-07T01:15:56;17.00;;;15.32;;
25653;SDS011;13511;48.622;9.230;2023-04-07T01:18:32;16.98;;;15.27;;
25653;SDS011;13511;48.622;9.230;2023-04-07T01:21:01;14.60;;;13.50;;
25653;SDS011;13511;48.622;9.230;2023-04-07T01:23:32;16.17;;;14.68;;
25653;SDS011;13511;48.622;9.230;2023-04-07T01:26:19;14.80;;;13.52;;
25653;SDS011;13511;48.622;9.230;2023-04-07T01:31:28;16.90;;;15.15;;
25653;SDS011;13511;48.622;9.230;2023-04-07T01:33:57;16.75;;;15.25;;
25653;SDS011;13511;48.622;9.230;2023-04-07T01:36:24;17.30;;;15.63;;
25653;SDS011;13511;48.622;9.230;2023-04-07T01:38:52;17.45;;;15.73;;
25653;SDS011;13511;48.622;9.230;2023-04-07T01:41:18;18.25;;;16.30;;
25653;SDS011;13511;48.622;9.230;2023-04-07T01:43:45;17.77;;;15.70;;
25653;SDS011;13511;48.622;9.230;2023-04-07T01:46:12;18.70;;;16.77;;
25653;SDS011;13511;48.622;9.230;2023-04-07T01:48:38;17.70;;;16.10;;
25653;SDS011;13511;48.622;9.230;2023-04-07T01:51:05;18.10;;;16.40;;
25653;SDS011;13511;48.622;9.230;2023-04-07T01:53:31;17.67;;;16.25;;
25653;SDS011;13511;48.622;9.230;2023-04-07T01:55:57;18.20;;;16.40;;
25653;SDS011;13511;48.622;9.230;2023-04-07T01:58:23;17.98;;;16.08;;
25653;SDS011;13511;48.622;9.230;2023-04-07T02:00:50;19.02;;;17.15;;
25653;SDS011;13511;48.622;9.230;2023-04-07T02:03:22;18.50;;;16.70;;
25653;SDS011;13511;48.622;9.230;2023-04-07T02:05:49;19.40;;;17.48;;
25653;SDS011;13511;48.622;9.230;2023-04-07T02:08:17;18.23;;;16.42;;
25653;SDS011;13511;48.622;9.230;2023-04-07T02:10:45;18.70;;;17.02;;
25653;SDS011;13511;48.622;9.230;2023-04-07T02:13:14;18.13;;;16.35;;
25653;SDS011;13511;48.622;9.230;2023-04-07T02:15:40;17.67;;;16.10;;
25653;SDS011;13511;48.622;9.230;2023-04-07T02:18:08;19.08;;;17.33;;
25653;SDS011;13511;48.622;9.230;2023-04-07T02:20:36;19.02;;;17.08;;
25653;SDS011;13511;48.622;9.230;2023-04-07T02:23:02;17.83;;;16.30;;
25653;SDS011;13511;48.622;9.230;2023-04-07T02:25:29;20.02;;;17.92;;
25653;SDS011;13511;48.622;9.230;2023-04-07T02:27:56;19.63;;;17.75;;
25653;SDS011;13511;48.622;9.230;2023-04-07T02:30:23;18.73;;;16.65;;
25653;SDS011;13511;48.622;9.230;2023-04-07T02:32:49;17.77;;;16.27;;
25653;SDS011;13511;48.622;9.230;2023-04-07T02:35:15;20.30;;;18.25;;
25653;SDS011;13511;48.622;9.230;2023-04-07T02:37:41;19.63;;;17.83;;
25653;SDS011;13511;48.622;9.230;2023-04-07T02:40:08;19.50;;;17.45;;
25653;SDS011;13511;48.622;9.230;2023-04-07T02:42:34;21.20;;;19.20;;
25653;SDS011;13511;48.622;9.230;2023-04-07T02:45:00;20.48;;;18.48;;
25653;SDS011;13511;48.622;9.230;2023-04-07T02:47:26;20.38;;;18.45;;
25653;SDS011;13511;48.622;9.230;2023-04-07T02:49:52;21.25;;;19.27;;
25653;SDS011;13511;48.622;9.230;2023-04-07T02:52:18;20.90;;;18.80;;
25653;SDS011;13511;48.622;9.230;2023-04-07T02:54:44;22.23;;;19.25;;
25653;SDS011;13511;48.622;9.230;2023-04-07T02:57:11;21.90;;;19.60;;
25653;SDS011;13511;48.622;9.230;2023-04-07T02:59:38;18.98;;;17.20;;
25653;SDS011;13511;48.622;9.230;2023-04-07T03:02:04;19.25;;;16.83;;
25653;SDS011;13511;48.622;9.230;2023-04-07T03:04:30;20.60;;;18.50;;
25653;SDS011;13511;48.622;9.230;2023-04-07T03:06:56;19.27;;;17.42;;
25653;SDS011;13511;48.622;9.230;2023-04-07T03:09:22;19.63;;;17.63;;
25653;SDS011;13511;48.622;9.230;2023-04-07T03:11:48;20.25;;;18.15;;
25653;SDS011;13511;48.622;9.230;2023-04-07T03:14:15;19.75;;;17.13;;
25653;SDS011;13511;48.622;9.230;2023-04-07T03:16:41;19.45;;;17.63;;
25653;SDS011;13511;48.622;9.230;2023-04-07T03:19:07;18.50;;;16.80;;
25653;SDS011;13511;48.622;9.230;2023-04-07T03:21:34;25.08;;;19.02;;
25653;SDS011;13511;48.622;9.230;2023-04-07T03:24:00;20.13;;;18.13;;
25653;SDS011;13511;48.622;9.230;2023-04-07T03:26:26;19.77;;;17.58;;
25653;SDS011;13511;48.622;9.230;2023-04-07T03:28:52;19.58;;;17.55;;
25653;SDS011;13511;48.622;9.230;2023-04-07T03:31:18;20.20;;;18.02;;
25653;SDS011;13511;48.622;9.230;2023-04-07T03:33:44;19.80;;;17.80;;
25653;SDS011;13511;48.622;9.230;2023-04-07T03:36:10;19.77;;;17.88;;
25653;SDS011;13511;48.622;9.230;2023-04-07T03:38:37;21.55;;;18.90;;
25653;SDS011;13511;48.622;9.230;2023-04-07T03:41:03;19.80;;;17.95;;
25653;SDS011;13511;48.622;9.230;2023-04-07T03:43:29;20.10;;;18.27;;
25653;SDS011;13511;48.622;9.230;2023-04-07T03:45:56;18.00;;;16.42;;
25653;SDS011;13511;48.622;9.230;2023-04-07T03:48:22;17.58;;;15.77;;
25653;SDS011;13511;48.622;9.230;2023-04-07T03:50:48;18.13;;;16.42;;
25653;SDS011;13511;48.622;9.230;2023-04-07T03:53:14;18.08;;;16.27;;
25653;SDS011;13511;48.622;9.230;2023-04-07T03:55:40;19.08;;;17.27;;
25653;SDS011;13511;48.622;9.230;2023-04-07T03:58:07;20.33;;;17.23;;
25653;SDS011;13511;48.622;9.230;2023-04-07T04:00:33;18.65;;;16.65;;
25653;SDS011;13511;48.622;9.230;2023-04-07T04:02:59;20.75;;;17.75;;
25653;SDS011;13511;48.622;9.230;2023-04-07T04:05:25;20.45;;;18.10;;
25653;SDS011;13511;48.622;9.230;2023-04-07T04:07:51;20.05;;;18.02;;
25653;SDS011;13511;48.622;9.230;2023-04-07T04:10:18;19.45;;;17.40;;
25653;SDS011;13511;48.622;9.230;2023-04-07T04:12:45;18.65;;;16.85;;
25653;SDS011;13511;48.622;9.230;2023-04-07T04:15:11;18.90;;;17.13;;
25653;SDS011;13511;48.622;9.230;2023-04-07T04:17:37;18.80;;;17.02;;
25653;SDS011;13511;48.622;9.230;2023-04-07T04:20:04;17.38;;;15.85;;
25653;SDS011;13511;48.622;9.230;2023-04-07T04:22:30;19.23;;;17.25;;
25653;SDS011;13511;48.622;9.230;2023-04-07T04:24:56;18.98;;;17.13;;
25653;SDS011;13511;48.622;9.230;2023-04-07T04:27:22;18.33;;;16.63;;
25653;SDS011;13511;48.622;9.230;2023-04-07T04:29:48;19.80;;;16.85;;
25653;SDS011;13511;48.622;9.230;2023-04-07T04:32:14;18.85;;;17.05;;
25653;SDS011;13511;48.622;9.230;2023-04-07T04:34:41;18.85;;;17.02;;
25653;SDS011;13511;48.622;9.230;2023-04-07T04:37:07;17.92;;;16.10;;
25653;SDS011;13511;48.622;9.230;2023-04-07T04:39:33;18.27;;;16.60;;
25653;SDS011;13511;48.622;9.230;2023-04-07T04:44:35;19.25;;;17.33;;
25653;SDS011;13511;48.622;9.230;2023-04-07T04:47:01;20.05;;;17.92;;
25653;SDS011;13511;48.622;9.230;2023-04-07T04:49:27;19.05;;;16.83;;
25653;SDS011;13511;48.622;9.230;2023-04-07T04:51:56;16.77;;;15.18;;
25653;SDS011;13511;48.622;9.230;2023-04-07T04:54:22;17.08;;;15.45;;
25653;SDS011;13511;48.622;9.230;2023-04-07T04:59:17;16.70;;;15.07;;
25653;SDS011;13511;48.622;9.230;2023-04-07T05:01:43;17.70;;;16.10;;
25653;SDS011;13511;48.622;9.230;2023-04-07T05:04:08;17.95;;;16.25;;
25653;SDS011;13511;48.622;9.230;2023-04-07T05:06:35;17.88;;;16.17;;
25653;SDS011;13511;48.622;9.230;2023-04-07T05:09:01;17.02;;;15.43;;
25653;SDS011;13511;48.622;9.230;2023-04-07T05:11:27;15.57;;;14.20;;
25653;SDS011;13511;48.622;9.230;2023-04-07T05:13:53;15.68;;;14.27;;
25653;SDS011;13511;48.622;9.230;2023-04-07T05:16:19;16.05;;;14.52;;
25653;SDS011;13511;48.622;9.230;2023-04-07T05:18:45;17.58;;;15.90;;
25653;SDS011;13511;48.622;9.230;2023-04-07T05:21:11;16.70;;;15.13;;
25653;SDS011;13511;48.622;9.230;2023-04-07T05:23:37;18.67;;;16.88;;
25653;SDS011;13511;48.622;9.230;2023-04-07T05:26:03;18.52;;;16.75;;
25653;SDS011;13511;48.622;9.230;2023-04-07T05:28:29;18.77;;;16.95;;
25653;SDS011;13511;48.622;9.230;2023-04-07T05:30:55;18.00;;;16.25;;
25653;SDS011;13511;48.622;9.230;2023-04-07T05:33:21;18.02;;;16.20;;
25653;SDS011;13511;48.622;9.230;2023-04-07T05:35:47;18.08;;;16.48;;
25653;SDS011;13511;48.622;9.230;2023-04-07T05:38:13;18.48;;;16.73;;
25653;SDS011;13511;48.622;9.230;2023-04-07T05:40:40;17.98;;;16.25;;
25653;SDS011;13511;48.622;9.230;2023-04-07T05:43:06;17.45;;;15.73;;
25653;SDS011;13511;48.622;9.230;2023-04-07T05:45:32;18.75;;;16.85;;
25653;SDS011;13511;48.622;9.230;2023-04-07T05:47:58;17.13;;;15.65;;
25653;SDS011;13511;48.622;9.230;2023-04-07T05:50:24;17.55;;;16.02;;
25653;SDS011;13511;48.622;9.230;2023-04-07T05:52:50;18.27;;;16.58;;
25653;SDS011;13511;48.622;9.230;2023-04-07T05:55:16;17.80;;;16.17;;
25653;SDS011;13511;48.622;9.230;2023-04-07T05:57:42;16.63;;;15.15;;
25653;SDS011;13511;48.622;9.230;2023-04-07T06:00:09;18.40;;;16.50;;
25653;SDS011;13511;48.622;9.230;2023-04-07T06:02:35;17.17;;;15.18;;
25653;SDS011;13511;48.622;9.230;2023-04-07T06:05:01;17.30;;;15.70;;
25653;SDS011;13511;48.622;9.230;2023-04-07T06:07:27;16.77;;;15.15;;
25653;SDS011;13511;48.622;9.230;2023-04-07T06:09:53;16.52;;;14.93;;
25653;SDS011;13511;48.622;9.230;2023-04-07T06:12:19;15.18;;;13.98;;
25653;SDS011;13511;48.622;9.230;2023-04-07T06:14:45;17.60;;;16.02;;
25653;SDS011;13511;48.622;9.230;2023-04-07T06:17:12;17.08;;;15.30;;
25653;SDS011;13511;48.622;9.230;2023-04-07T06:19:38;15.45;;;14.15;;
25653;SDS011;13511;48.622;9.230;2023-04-07T06:22:04;15.98;;;14.48;;
25653;SDS011;13511;48.622;9.230;2023-04-07T06:24:30;19.48;;;14.38;;
25653;SDS011;13511;48.622;9.230;2023-04-07T06:26:56;14.82;;;13.32;;
25653;SDS011;13511;48.622;9.230;2023-04-07T06:29:22;15.45;;;14.05;;
25653;SDS011;13511;48.622;9.230;2023-04-07T06:31:48;16.88;;;15.38;;
25653;SDS011;13511;48.622;9.230;2023-04-07T06:34:14;16.88;;;15.20;;
25653;SDS011;13511;48.622;9.230;2023-04-07T06:36:40;16.15;;;14.68;;
25653;SDS011;13511;48.622;9.230;2023-04-07T06:39:06;17.40;;;15.70;;
25653;SDS011;13511;48.622;9.230;2023-04-07T06:41:33;16.17;;;14.65;;
25653;SDS011;13511;48.622;9.230;2023-04-07T06:43:59;15.77;;;14.30;;
25653;SDS011;13511;48.622;9.230;2023-04-07T06:46:25;15.45;;;13.93;;
25653;SDS011;13511;48.622;9.230;2023-04-07T06:48:51;15.98;;;14.52;;
25653;SDS011;13511;48.622;9.230;2023-04-07T06:51:17;15.25;;;13.95;;
25653;SDS011;13511;48.622;9.230;2023-04-07T06:53:43;15.10;;;13.82;;
25653;SDS011;13511;48.622;9.230;2023-04-07T06:56:09;16.45;;;15.10;;
25653;SDS011;13511;48.622;9.230;2023-04-07T06:58:36;17.02;;;15.30;;
25653;SDS011;13511;48.622;9.230;2023-04-07T07:01:02;16.10;;;14.77;;
25653;SDS011;13511;48.622;9.230;2023-04-07T07:03:29;17.05;;;15.15;;
25653;SDS011;13511;48.622;9.230;2023-04-07T07:05:55;16.42;;;14.93;;
25653;SDS011;13511;48.622;9.230;2023-04-07T07:08:22;21.92;;;19.60;;
25653;SDS011;13511;48.622;9.230;2023-04-07T07:10:48;20.20;;;18.20;;
25653;SDS011;13511;48.622;9.230;2023-04-07T07:13:14;21.10;;;19.00;;
25653;SDS011;13511;48.622;9.230;2023-04-07T07:15:40;21.17;;;19.08;;
25653;SDS011;13511;48.622;9.230;2023-04-07T07:18:06;19.75;;;17.85;;
25653;SDS011;13511;48.622;9.230;2023-04-07T07:20:32;22.75;;;19.60;;
25653;SDS011;13511;48.622;9.230;2023-04-07T07:22:58;20.30;;;18.40;;
25653;SDS011;13511;48.622;9.230;2023-04-07T07:25:24;21.02;;;18.77;;
25653;SDS011;13511;48.622;9.230;2023-04-07T07:27:53;22.17;;;19.95;;
25653;SDS011;13511;48.622;9.230;2023-04-07T07:30:20;22.45;;;19.83;;
25653;SDS011;13511;48.622;9.230;2023-04-07T07:32:46;25.52;;;19.40;;
25653;SDS011;13511;48.622;9.230;2023-04-07T07:35:12;21.90;;;19.23;;
25653;SDS011;13511;48.622;9.230;2023-04-07T07:37:38;20.95;;;18.75;;
25653;SDS011;13511;48.622;9.230;2023-04-07T07:40:04;21.05;;;18.63;;
25653;SDS011;13511;48.622;9.230;2023-04-07T07:42:30;20.55;;;18.55;;
25653;SDS011;13511;48.622;9.230;2023-04-07T07:44:57;20.98;;;18.90;;
25653;SDS011;13511;48.622;9.230;2023-04-07T07:47:23;21.55;;;19.25;;
25653;SDS011;13511;48.622;9.230;2023-04-07T07:49:50;20.67;;;18.50;;
25653;SDS011;13511;48.622;9.230;2023-04-07T07:52:16;18.90;;;17.00;;
25653;SDS011;13511;48.622;9.230;2023-04-07T07:54:42;19.17;;;17.17;;
25653;SDS011;13511;48.622;9.230;2023-04-07T07:57:08;19.35;;;17.33;;
25653;SDS011;13511;48.622;9.230;2023-04-07T07:59:34;18.40;;;16.50;;
25653;SDS011;13511;48.622;9.230;2023-04-07T08:02:00;17.98;;;15.75;;
25653;SDS011;13511;48.622;9.230;2023-04-07T08:04:26;17.98;;;16.15;;
25653;SDS011;13511;48.622;9.230;2023-04-07T08:06:52;16.35;;;15.02;;
25653;SDS011;13511;48.622;9.230;2023-04-07T08:09:19;16.05;;;14.65;;
25653;SDS011;13511;48.622;9.230;2023-04-07T08:11:45;16.88;;;15.15;;
25653;SDS011;13511;48.622;9.230;2023-04-07T08:14:15;15.27;;;13.88;;
25653;SDS011;13511;48.622;9.230;2023-04-07T08:16:41;15.02;;;13.63;;
25653;SDS011;13511;48.622;9.230;2023-04-07T08:19:08;15.35;;;13.88;;
25653;SDS011;13511;48.622;9.230;2023-04-07T08:21:34;16.17;;;14.55;;
25653;SDS011;13511;48.622;9.230;2023-04-07T08:24:00;14.68;;;13.38;;
25653;SDS011;13511;48.622;9.230;2023-04-07T08:26:26;15.32;;;13.77;;
25653;SDS011;13511;48.622;9.230;2023-04-07T08:28:52;14.82;;;13.57;;
25653;SDS011;13511;48.622;9.230;2023-04-07T08:31:20;14.95;;;13.40;;
25653;SDS011;13511;48.622;9.230;2023-04-07T08:33:46;15.10;;;13.70;;
25653;SDS011;13511;48.622;9.230;2023-04-07T08:36:12;11.93;;;10.93;;
25653;SDS011;13511;48.622;9.230;2023-04-07T08:38:38;12.38;;;11.23;;
25653;SDS011;13511;48.622;9.230;2023-04-07T08:41:09;10.35;;;9.52;;
25653;SDS011;13511;48.622;9.230;2023-04-07T08:43:36;11.45;;;10.35;;
25653;SDS011;13511;48.622;9.230;2023-04-07T08:46:03;9.75;;;8.95;;
25653;SDS011;13511;48.622;9.230;2023-04-07T08:48:29;10.02;;;9.15;;
25653;SDS011;13511;48.622;9.230;2023-04-07T08:51:02;11.35;;;10.45;;
25653;SDS011;13511;48.622;9.230;2023-04-07T08:53:31;10.82;;;10.02;;
25653;SDS011;13511;48.622;9.230;2023-04-07T08:56:00;10.73;;;9.93;;
25653;SDS011;13511;48.622;9.230;2023-04-07T08:58:27;11.45;;;9.95;;
25653;SDS011;13511;48.622;9.230;2023-04-07T09:00:53;10.25;;;9.40;;
25653;SDS011;13511;48.622;9.230;2023-04-07T09:03:19;10.35;;;9.52;;
25653;SDS011;13511;48.622;9.230;2023-04-07T09:05:45;11.07;;;10.05;;
25653;SDS011;13511;48.622;9.230;2023-04-07T09:08:12;9.90;;;9.20;;
25653;SDS011;13511;48.622;9.230;2023-04-07T09:10:38;11.18;;;10.18;;
25653;SDS011;13511;48.622;9.230;2023-04-07T09:13:04;10.02;;;9.07;;
25653;SDS011;13511;48.622;9.230;2023-04-07T09:15:30;8.50;;;7.90;;
25653;SDS011;13511;48.622;9.230;2023-04-07T09:17:57;9.57;;;8.80;;
25653;SDS011;13511;48.622;9.230;2023-04-07T09:20:23;8.75;;;8.05;;
25653;SDS011;13511;48.622;9.230;2023-04-07T09:22:49;9.82;;;8.90;;
25653;SDS011;13511;48.622;9.230;2023-04-07T09:25:16;10.15;;;9.20;;
25653;SDS011;13511;48.622;9.230;2023-04-07T09:27:53;9.40;;;8.60;;
25653;SDS011;13511;48.622;9.230;2023-04-07T09:30:19;9.85;;;8.73;;
25653;SDS011;13511;48.622;9.230;2023-04-07T09:32:45;9.05;;;8.30;;
25653;SDS011;13511;48.622;9.230;2023-04-07T09:35:11;9.93;;;8.13;;
25653;SDS011;13511;48.622;9.230;2023-04-07T09:37:37;10.82;;;9.68;;
25653;SDS011;13511;48.622;9.230;2023-04-07T09:40:03;10.32;;;9.30;;
25653;SDS011;13511;48.622;9.230;2023-04-07T09:42:29;10.75;;;9.77;;
25653;SDS011;13511;48.622;9.230;2023-04-07T09:44:59;10.15;;;9.35;;
25653;SDS011;13511;48.622;9.230;2023-04-07T09:47:28;10.45;;;9.10;;
25653;SDS011;13511;48.622;9.230;2023-04-07T09:49:56;9.73;;;8.68;;
25653;SDS011;13511;48.622;9.230;2023-04-07T09:55:12;9.63;;;8.73;;
25653;SDS011;13511;48.622;9.230;2023-04-07T09:57:38;8.63;;;7.78;;
25653;SDS011;13511;48.622;9.230;2023-04-07T10:00:06;9.57;;;7.85;;
25653;SDS011;13511;48.622;9.230;2023-04-07T10:02:32;7.63;;;7.00;;
25653;SDS011;13511;48.622;9.230;2023-04-07T10:04:58;7.88;;;7.18;;
25653;SDS011;13511;48.622;9.230;2023-04-07T10:07:24;7.68;;;7.00;;
25653;SDS011;13511;48.622;9.230;2023-04-07T10:09:51;7.00;;;6.47;;
25653;SDS011;13511;48.622;9.230;2023-04-07T10:12:17;7.57;;;7.03;;
25653;SDS011;13511;48.622;9.230;2023-04-07T10:14:43;7.07;;;6.47;;
25653;SDS011;13511;48.622;9.230;2023-04-07T10:17:11;7.13;;;6.43;;
25653;SDS011;13511;48.622;9.230;2023-04-07T10:19:42;7.57;;;6.82;;
25653;SDS011;13511;48.622;9.230;2023-04-07T10:22:08;7.07;;;6.47;;
25653;SDS011;13511;48.622;9.230;2023-04-07T10:29:42;7.22;;;6.63;;
25653;SDS011;13511;48.622;9.230;2023-04-07T10:32:09;8.77;;;8.10;;
25653;SDS011;13511;48.622;9.230;2023-04-07T10:37:21;7.50;;;6.70;;
25653;SDS011;13511;48.622;9.230;2023-04-07T10:39:48;6.95;;;6.35;;
25653;SDS011;13511;48.622;9.230;2023-04-07T10:45:06;12.07;;;6.88;;
25653;SDS011;13511;48.622;9.230;2023-04-07T10:47:33;6.38;;;5.78;;
25653;SDS011;13511;48.622;9.230;2023-04-07T10:52:46;6.35;;;5.85;;
25653;SDS011;13511;48.622;9.230;2023-04-07T10:55:28;8.80;;;6.40;;
25653;SDS011;13511;48.622;9.230;2023-04-07T11:00:40;6.28;;;5.88;;
25653;SDS011;13511;48.622;9.230;2023-04-07T11:03:12;6.68;;;6.18;;
25653;SDS011;13511;48.622;9.230;2023-04-07T11:05:39;7.25;;;6.30;;
25653;SDS011;13511;48.622;9.230;2023-04-07T11:08:05;6.50;;;5.80;;
25653;SDS011;13511;48.622;9.230;2023-04-07T11:10:32;7.55;;;5.93;;
25653;SDS011;13511;48.622;9.230;2023-04-07T11:13:02;9.32;;;6.13;;
25653;SDS011;13511;48.622;9.230;2023-04-07T11:15:29;7.10;;;6.28;;
25653;SDS011;13511;48.622;9.230;2023-04-07T11:18:05;6.43;;;5.93;;
25653;SDS011;13511;48.622;9.230;2023-04-07T11:20:41;5.10;;;4.80;;
25653;SDS011;13511;48.622;9.230;2023-04-07T11:23:07;5.50;;;5.10;;
25653;SDS011;13511;48.622;9.230;2023-04-07T11:25:34;4.80;;;4.50;;
25653;SDS011;13511;48.622;9.230;2023-04-07T11:28:00;4.93;;;4.63;;
25653;SDS011;13511;48.622;9.230;2023-04-07T11:30:28;4.30;;;4.00;;
25653;SDS011;13511;48.622;9.230;2023-04-07T11:32:54;4.03;;;3.80;;
25653;SDS011;13511;48.622;9.230;2023-04-07T11:35:21;4.22;;;4.00;;
25653;SDS011;13511;48.622;9.230;2023-04-07T11:37:47;3.80;;;3.60;;
25653;SDS011;13511;48.622;9.230;2023-04-07T11:40:21;4.45;;;4.15;;
25653;SDS011;13511;48.622;9.230;2023-04-07T11:42:56;4.40;;;4.20;;
25653;SDS011;13511;48.622;9.230;2023-04-07T11:45:22;4.28;;;3.90;;
25653;SDS011;13511;48.622;9.230;2023-04-07T11:47:48;4.30;;;3.90;;
25653;SDS011;13511;48.622;9.230;2023-04-07T11:50:15;3.88;;;3.70;;
25653;SDS011;13511;48.622;9.230;2023-04-07T11:52:44;4.05;;;3.70;;
25653;SDS011;13511;48.622;9.230;2023-04-07T11:55:17;4.28;;;3.95;;
25653;SDS011;13511;48.622;9.230;2023-04-07T11:57:43;4.60;;;4.30;;
25653;SDS011;13511;48.622;9.230;2023-04-07T12:00:10;4.10;;;3.90;;
25653;SDS011;13511;48.622;9.230;2023-04-07T12:02:36;4.53;;;4.22;;
25653;SDS011;13511;48.622;9.230;2023-04-07T12:05:03;4.78;;;3.90;;
25653;SDS011;13511;48.622;9.230;2023-04-07T12:07:29;4.20;;;3.90;;
25653;SDS011;13511;48.622;9.230;2023-04-07T12:09:55;4.50;;;4.20;;
25653;SDS011;13511;48.622;9.230;2023-04-07T12:12:28;4.50;;;4.30;;
25653;SDS011;13511;48.622;9.230;2023-04-07T12:14:57;4.47;;;4.18;;
25653;SDS011;13511;48.622;9.230;2023-04-07T12:17:23;5.20;;;4.60;;
25653;SDS011;13511;48.622;9.230;2023-04-07T12:19:50;4.85;;;4.50;;
25653;SDS011;13511;48.622;9.230;2023-04-07T12:22:16;5.03;;;4.63;;
25653;SDS011;13511;48.622;9.230;2023-04-07T12:24:42;4.65;;;4.35;;
25653;SDS011;13511;48.622;9.230;2023-04-07T12:27:08;4.85;;;4.50;;
25653;SDS011;13511;48.622;9.230;2023-04-07T12:29:34;5.22;;;4.60;;
25653;SDS011;13511;48.622;9.230;2023-04-07T12:32:02;5.57;;;5.07;;
25653;SDS011;13511;48.622;9.230;2023-04-07T12:34:28;5.22;;;4.82;;
25653;SDS011;13511;48.622;9.230;2023-04-07T12:36:54;5.22;;;4.72;;
25653;SDS011;13511;48.622;9.230;2023-04-07T12:39:20;4.55;;;4.30;;
25653;SDS011;13511;48.622;9.230;2023-04-07T12:41:46;5.28;;;4.90;;
25653;SDS011;13511;48.622;9.230;2023-04-07T12:44:17;4.85;;;4.57;;
25653;SDS011;13511;48.622;9.230;2023-04-07T12:46:43;5.05;;;4.75;;
25653;SDS011;13511;48.622;9.230;2023-04-07T12:49:09;5.40;;;4.85;;
25653;SDS011;13511;48.622;9.230;2023-04-07T12:51:35;5.47;;;4.72;;
25653;SDS011;13511;48.622;9.230;2023-04-07T12:54:03;6.05;;;5.35;;
25653;SDS011;13511;48.622;9.230;2023-04-07T12:56:29;6.07;;;5.57;;
25653;SDS011;13511;48.622;9.230;2023-04-07T12:58:56;5.82;;;5.45;;
25653;SDS011;13511;48.622;9.230;2023-04-07T13:01:22;6.95;;;6.32;;
25653;SDS011;13511;48.622;9.230;2023-04-07T13:03:48;6.90;;;6.35;;
25653;SDS011;13511;48.622;9.230;2023-04-07T13:06:14;8.32;;;7.45;;
25653;SDS011;13511;48.622;9.230;2023-04-07T13:08:41;7.38;;;6.88;;
25653;SDS011;13511;48.622;9.230;2023-04-07T13:11:07;7.72;;;6.93;;
25653;SDS011;13511;48.622;9.230;2023-04-07T13:13:33;7.75;;;6.90;;
25653;SDS011;13511;48.622;9.230;2023-04-07T13:15:59;7.75;;;7.07;;
25653;SDS011;13511;48.622;9.230;2023-04-07T13:18:25;8.13;;;7.35;;
25653;SDS011;13511;48.622;9.230;2023-04-07T13:20:52;8.13;;;7.32;;
25653;SDS011;13511;48.622;9.230;2023-04-07T13:23:18;7.70;;;7.00;;
25653;SDS011;13511;48.622;9.230;2023-04-07T13:25:45;7.85;;;7.15;;
25653;SDS011;13511;48.622;9.230;2023-04-07T13:28:11;6.88;;;6.32;;
25653;SDS011;13511;48.622;9.230;2023-04-07T13:30:37;8.25;;;7.60;;
25653;SDS011;13511;48.622;9.230;2023-04-07T13:33:03;8.63;;;7.82;;
25653;SDS011;13511;48.622;9.230;2023-04-07T13:35:29;9.43;;;7.80;;
25653;SDS011;13511;48.622;9.230;2023-04-07T13:37:59;7.00;;;6.32;;
25653;SDS011;13511;48.622;9.230;2023-04-07T13:40:25;6.40;;;5.85;;
25653;SDS011;13511;48.622;9.230;2023-04-07T13:42:51;5.13;;;4.72;;
25653;SDS011;13511;48.622;9.230;2023-04-07T13:45:17;5.43;;;5.05;;
25653;SDS011;13511;48.622;9.230;2023-04-07T13:47:43;5.18;;;4.80;;
25653;SDS011;13511;48.622;9.230;2023-04-07T13:50:10;6.13;;;5.63;;
25653;SDS011;13511;48.622;9.230;2023-04-07T13:52:36;5.40;;;5.03;;
25653;SDS011;13511;48.622;9.230;2023-04-07T13:55:02;4.80;;;4.50;;
25653;SDS011;13511;48.622;9.230;2023-04-07T13:57:29;4.57;;;4.35;;
25653;SDS011;13511;48.622;9.230;2023-04-07T13:59:55;4.60;;;4.30;;
25653;SDS011;13511;48.622;9.230;2023-04-07T14:02:21;4.80;;;4.50;;
25653;SDS011;13511;48.622;9.230;2023-04-07T14:04:48;4.40;;;4.20;;
25653;SDS011;13511;48.622;9.230;2023-04-07T14:07:15;4.10;;;3.90;;
25653;SDS011;13511;48.622;9.230;2023-04-07T14:09:41;5.18;;;4.68;;
25653;SDS011;13511;48.622;9.230;2023-04-07T14:12:07;4.60;;;4.30;;
25653;SDS011;13511;48.622;9.230;2023-04-07T14:14:33;4.30;;;4.10;;
25653;SDS011;13511;48.622;9.230;2023-04-07T14:17:01;4.47;;;4.20;;
25653;SDS011;13511;48.622;9.230;2023-04-07T14:19:28;4.68;;;4.32;;
25653;SDS011;13511;48.622;9.230;2023-04-07T14:21:54;5.10;;;4.60;;
25653;SDS011;13511;48.622;9.230;2023-04-07T14:24:20;4.60;;;4.30;;
25653;SDS011;13511;48.622;9.230;2023-04-07T14:26:46;5.07;;;4.68;;
25653;SDS011;13511;48.622;9.230;2023-04-07T14:29:13;4.50;;;4.30;;
25653;SDS011;13511;48.622;9.230;2023-04-07T14:31:39;5.20;;;4.70;;
25653;SDS011;13511;48.622;9.230;2023-04-07T14:34:05;4.93;;;4.50;;
25653;SDS011;13511;48.622;9.230;2023-04-07T14:36:32;5.00;;;4.72;;
25653;SDS011;13511;48.622;9.230;2023-04-07T14:38:58;4.70;;;4.40;;
25653;SDS011;13511;48.622;9.230;2023-04-07T14:41:25;4.85;;;4.43;;
25653;SDS011;13511;48.622;9.230;2023-04-07T14:43:51;5.13;;;4.60;;
25653;SDS011;13511;48.622;9.230;2023-04-07T14:46:23;6.20;;;4.93;;
25653;SDS011;13511;48.622;9.230;2023-04-07T14:48:49;5.95;;;5.38;;
25653;SDS011;13511;48.622;9.230;2023-04-07T14:51:16;5.10;;;4.57;;
25653;SDS011;13511;48.622;9.230;2023-04-07T14:53:42;4.78;;;4.55;;
25653;SDS011;13511;48.622;9.230;2023-04-07T14:56:09;4.70;;;4.40;;